createdAt,value
2022-12-25T00:01:09.068Z,3.70
2022-12-25T00:03:37.777Z,2.97
2022-12-25T00:06:07.038Z,2.43
2022-12-25T00:08:36.393Z,2.60
2022-12-25T00:11:07.265Z,2.53
2022-12-25T00:13:35.645Z,2.50
2022-12-25T00:16:10.005Z,2.43
2022-12-25T00:18:38.185Z,3.10
2022-12-25T00:21:08.210Z,4.33
2022-12-25T00:23:37.118Z,3.43
2022-12-25T00:26:06.586Z,3.40
2022-12-25T00:28:35.921Z,2.80
2022-12-25T00:31:08.384Z,2.87
2022-12-25T00:33:38.109Z,2.50
2022-12-25T00:36:07.860Z,2.70
2022-12-25T00:38:37.998Z,2.33
2022-12-25T00:41:08.690Z,2.47
2022-12-25T00:43:37.472Z,2.40
2022-12-25T00:46:08.895Z,2.43
2022-12-25T00:48:37.493Z,2.70
2022-12-25T00:51:08.584Z,2.20
2022-12-25T00:53:36.860Z,2.07
2022-12-25T00:56:08.494Z,2.10
2022-12-25T00:58:37.153Z,1.80
2022-12-25T01:01:05.534Z,2.30
2022-12-25T01:03:35.031Z,2.57
2022-12-25T01:06:07.414Z,3.80
2022-12-25T01:08:38.271Z,2.50
2022-12-25T01:11:08.924Z,3.40
2022-12-25T01:13:38.665Z,4.10
2022-12-25T01:16:07.852Z,3.47
2022-12-25T01:18:37.994Z,5.27
2022-12-25T01:21:08.142Z,4.10
2022-12-25T01:23:36.978Z,4.40
2022-12-25T01:26:05.895Z,3.53
2022-12-25T01:28:34.611Z,2.83
2022-12-25T01:31:02.988Z,2.77
2022-12-25T01:33:31.472Z,2.50
2022-12-25T01:36:00.994Z,1.97
2022-12-25T01:38:29.192Z,1.73
2022-12-25T01:40:57.378Z,1.77
2022-12-25T01:43:29.362Z,3.10
2022-12-25T01:45:57.798Z,2.30
2022-12-25T01:48:31.332Z,2.23
2022-12-25T01:51:06.192Z,2.30
2022-12-25T01:53:34.849Z,2.57
2022-12-25T01:56:07.747Z,2.40
2022-12-25T01:58:36.975Z,2.60
2022-12-25T02:01:08.263Z,2.37
2022-12-25T02:03:36.904Z,2.60
2022-12-25T02:06:08.541Z,2.77
2022-12-25T02:08:36.828Z,2.63
2022-12-25T02:11:05.389Z,2.43
2022-12-25T02:13:33.674Z,2.40
2022-12-25T02:16:09.362Z,2.30
2022-12-25T02:18:45.737Z,2.93
2022-12-25T02:21:49.417Z,2.77
2022-12-25T02:25:02.801Z,2.40
2022-12-25T02:27:53.929Z,2.27
2022-12-25T02:30:22.145Z,2.27
2022-12-25T02:33:17.823Z,2.70
2022-12-25T02:35:51.181Z,2.10
2022-12-25T02:38:25.298Z,2.23
2022-12-25T02:40:59.301Z,1.43
2022-12-25T02:43:50.496Z,1.33
2022-12-25T02:46:40.191Z,1.10
2022-12-25T02:49:30.630Z,1.47
2022-12-25T02:52:22.336Z,1.80
2022-12-25T02:55:13.452Z,1.70
2022-12-25T02:58:04.721Z,1.77
2022-12-25T03:00:57.288Z,1.50
2022-12-25T03:03:47.851Z,1.57
2022-12-25T03:06:34.729Z,1.10
2022-12-25T03:09:20.162Z,1.73
2022-12-25T03:11:55.266Z,1.47
2022-12-25T03:14:41.336Z,1.80
2022-12-25T03:17:10.921Z,1.57
2022-12-25T03:19:57.058Z,1.70
2022-12-25T03:22:47.718Z,1.30
2022-12-25T03:25:35.944Z,1.23
2022-12-25T03:28:06.663Z,1.53
2022-12-25T03:31:00.922Z,1.30
2022-12-25T03:34:01.108Z,1.13
2022-12-25T03:36:41.397Z,1.30
2022-12-25T03:39:34.137Z,1.10
2022-12-25T03:42:21.964Z,1.10
2022-12-25T03:45:19.262Z,1.00
2022-12-25T03:48:09.881Z,1.17
2022-12-25T03:51:00.785Z,1.40
2022-12-25T03:53:51.871Z,0.80
2022-12-25T03:56:38.273Z,1.10
2022-12-25T03:59:24.437Z,1.23
2022-12-25T04:02:11.168Z,1.10
2022-12-25T04:04:57.038Z,0.87
2022-12-25T04:07:43.893Z,1.10
2022-12-25T04:10:29.837Z,1.20
2022-12-25T04:13:15.706Z,0.90
2022-12-25T04:16:01.644Z,1.20
2022-12-25T04:18:47.594Z,1.10
2022-12-25T04:21:33.274Z,0.90
2022-12-25T04:24:20.417Z,0.80
2022-12-25T04:27:06.112Z,0.73
2022-12-25T04:29:51.715Z,0.97
2022-12-25T04:32:37.731Z,1.20
2022-12-25T04:35:24.605Z,0.70
2022-12-25T04:37:52.800Z,1.07
2022-12-25T04:40:22.450Z,0.90
2022-12-25T04:42:51.471Z,0.70
2022-12-25T04:45:20.120Z,0.90
2022-12-25T04:47:48.272Z,0.80
2022-12-25T04:50:16.473Z,0.97
2022-12-25T04:52:44.589Z,1.47
2022-12-25T04:55:13.204Z,1.00
2022-12-25T04:57:42.708Z,0.70
2022-12-25T05:00:12.644Z,1.07
2022-12-25T05:02:40.977Z,1.00
2022-12-25T05:05:09.849Z,1.07
2022-12-25T05:07:37.961Z,1.00
2022-12-25T05:10:07.257Z,0.80
2022-12-25T05:12:35.466Z,0.80
2022-12-25T05:15:05.766Z,0.50
2022-12-25T05:17:33.984Z,1.00
2022-12-25T05:20:02.319Z,0.87
2022-12-25T05:22:30.665Z,0.97
2022-12-25T05:24:58.836Z,1.10
2022-12-25T05:27:27.465Z,0.83
2022-12-25T05:29:55.717Z,1.00
2022-12-25T05:32:25.513Z,0.87
2022-12-25T05:34:53.822Z,0.87
2022-12-25T05:37:21.939Z,1.20
2022-12-25T05:39:50.001Z,0.90
2022-12-25T05:42:18.088Z,0.70
2022-12-25T05:44:46.243Z,0.90
2022-12-25T05:47:14.700Z,1.10
2022-12-25T05:49:44.359Z,0.97
2022-12-25T05:52:12.533Z,0.87
2022-12-25T05:54:40.658Z,0.87
2022-12-25T05:57:08.745Z,0.60
2022-12-25T05:59:36.979Z,0.80
2022-12-25T06:02:05.226Z,0.67
2022-12-25T06:04:33.465Z,0.87
2022-12-25T06:07:02.924Z,0.60
2022-12-25T06:09:31.094Z,0.60
2022-12-25T06:11:59.400Z,0.70
2022-12-25T06:14:27.570Z,0.93
2022-12-25T06:16:55.779Z,0.77
2022-12-25T06:19:23.902Z,0.90
2022-12-25T06:21:54.620Z,0.80
2022-12-25T06:24:24.912Z,0.77
2022-12-25T06:26:53.235Z,0.50
2022-12-25T06:29:21.416Z,0.80
2022-12-25T06:31:49.775Z,0.63
2022-12-25T06:34:18.195Z,0.80
2022-12-25T06:36:46.314Z,0.90
2022-12-25T06:39:14.663Z,1.10
2022-12-25T06:41:44.302Z,0.83
2022-12-25T06:44:12.575Z,0.80
2022-12-25T06:46:41.097Z,1.23
2022-12-25T06:49:10.302Z,1.00
2022-12-25T06:51:38.507Z,1.10
2022-12-25T06:54:07.761Z,2.10
2022-12-25T06:56:36.506Z,1.60
2022-12-25T06:59:09.285Z,1.60
2022-12-25T07:01:44.493Z,1.40
2022-12-25T07:04:18.371Z,1.70
2022-12-25T07:06:46.952Z,21.20
2022-12-25T07:09:15.177Z,3.80
2022-12-25T07:11:43.504Z,1.80
2022-12-25T07:14:23.906Z,1.17
2022-12-25T07:16:52.643Z,1.20
2022-12-25T07:19:20.842Z,1.37
2022-12-25T07:21:49.034Z,2.30
2022-12-25T07:24:20.845Z,2.37
2022-12-25T07:26:49.240Z,1.80
2022-12-25T07:29:19.541Z,2.00
2022-12-25T07:31:48.056Z,1.20
2022-12-25T07:34:18.852Z,1.60
2022-12-25T07:36:47.059Z,1.47
2022-12-25T07:39:16.268Z,1.90
2022-12-25T07:41:44.769Z,1.37
2022-12-25T07:44:17.835Z,1.33
2022-12-25T07:46:46.314Z,1.53
2022-12-25T07:49:14.772Z,1.63
2022-12-25T07:51:42.970Z,1.60
2022-12-25T07:54:11.606Z,2.60
2022-12-25T07:56:39.830Z,3.03
2022-12-25T07:59:08.043Z,2.33
2022-12-25T08:01:37.719Z,2.10
2022-12-25T08:04:06.037Z,2.70
2022-12-25T08:06:36.726Z,2.57
2022-12-25T08:09:08.619Z,2.70
2022-12-25T08:11:37.770Z,1.70
2022-12-25T08:14:07.907Z,2.00
2022-12-25T08:16:39.682Z,2.63
2022-12-25T08:19:08.051Z,1.33
2022-12-25T08:21:36.296Z,1.77
2022-12-25T08:24:05.048Z,1.40
2022-12-25T08:26:33.277Z,1.33
2022-12-25T08:29:01.570Z,1.30
2022-12-25T08:31:31.296Z,1.07
2022-12-25T08:34:04.439Z,1.20
2022-12-25T08:36:32.667Z,1.43
2022-12-25T08:39:03.243Z,1.70
2022-12-25T08:41:32.052Z,1.70
2022-12-25T08:44:00.414Z,2.10
2022-12-25T08:46:28.601Z,2.37
2022-12-25T08:48:57.399Z,1.90
2022-12-25T08:51:27.675Z,2.60
2022-12-25T08:54:01.287Z,2.40
2022-12-25T08:56:29.686Z,4.10
2022-12-25T08:58:58.076Z,25.30
2022-12-25T09:01:26.354Z,18.50
2022-12-25T09:03:54.534Z,3.53
2022-12-25T09:06:22.889Z,2.27
2022-12-25T09:08:52.469Z,1.70
2022-12-25T09:11:21.733Z,1.77
2022-12-25T09:13:50.725Z,1.50
2022-12-25T09:16:22.784Z,1.77
2022-12-25T09:18:51.329Z,1.73
2022-12-25T09:21:20.503Z,2.00
2022-12-25T09:23:48.922Z,3.70
2022-12-25T09:26:20.652Z,4.77
2022-12-25T09:28:52.214Z,3.23
2022-12-25T09:31:22.396Z,3.63
2022-12-25T09:33:51.728Z,3.47
2022-12-25T09:36:21.246Z,3.00
2022-12-25T09:38:49.765Z,2.70
2022-12-25T09:41:28.997Z,1.63
2022-12-25T09:44:04.141Z,2.27
2022-12-25T09:46:42.309Z,1.70
2022-12-25T09:49:23.811Z,1.70
2022-12-25T09:52:00.050Z,2.10
2022-12-25T09:54:49.579Z,1.87
2022-12-25T09:57:19.139Z,1.40
2022-12-25T09:59:47.623Z,1.40
2022-12-25T10:02:59.700Z,2.37
2022-12-25T10:06:05.304Z,2.30
2022-12-25T10:08:57.976Z,2.30
2022-12-25T10:11:43.803Z,1.43
2022-12-25T10:14:26.982Z,2.20
2022-12-25T10:17:19.858Z,2.40
2022-12-25T10:19:54.518Z,2.00
2022-12-25T10:22:32.862Z,1.90
2022-12-25T10:25:02.232Z,2.50
2022-12-25T10:27:35.104Z,2.00
2022-12-25T10:30:15.779Z,1.67
2022-12-25T10:32:44.622Z,1.60
2022-12-25T10:35:13.993Z,1.57
2022-12-25T10:37:43.932Z,1.50
2022-12-25T10:40:31.321Z,1.60
2022-12-25T10:43:08.708Z,1.63
2022-12-25T10:45:47.273Z,1.70
2022-12-25T10:48:23.050Z,1.07
2022-12-25T10:50:51.653Z,1.73
2022-12-25T10:53:23.871Z,1.30
2022-12-25T10:56:00.292Z,1.47
2022-12-25T10:58:29.413Z,1.57
2022-12-25T11:01:04.131Z,1.67
2022-12-25T11:03:35.371Z,1.63
2022-12-25T11:06:03.982Z,1.53
2022-12-25T11:08:34.843Z,1.70
2022-12-25T11:11:07.033Z,1.53
2022-12-25T11:13:40.596Z,1.80
2022-12-25T11:16:15.459Z,1.60
2022-12-25T11:18:50.297Z,1.77
2022-12-25T11:21:24.009Z,1.67
2022-12-25T11:23:58.987Z,1.90
2022-12-25T11:26:30.244Z,2.07
2022-12-25T11:28:59.249Z,2.80
2022-12-25T11:31:38.153Z,2.90
2022-12-25T11:34:11.647Z,4.07
2022-12-25T11:36:47.356Z,3.37
2022-12-25T11:39:26.650Z,2.57
2022-12-25T11:42:00.566Z,1.57
2022-12-25T11:44:41.186Z,1.60
2022-12-25T11:47:21.270Z,1.30
2022-12-25T11:50:00.310Z,1.10
2022-12-25T11:52:33.184Z,1.30
2022-12-25T11:55:08.353Z,1.37
2022-12-25T11:57:38.765Z,1.57
2022-12-25T12:00:11.704Z,1.30
2022-12-25T12:02:47.317Z,1.30
2022-12-25T12:05:21.928Z,1.20
2022-12-25T12:07:57.214Z,1.03
2022-12-25T12:10:38.603Z,1.73
2022-12-25T12:13:22.097Z,1.20
2022-12-25T12:15:51.715Z,1.20
2022-12-25T12:18:29.931Z,1.83
2022-12-25T12:21:04.528Z,0.97
2022-12-25T12:23:38.498Z,0.90
2022-12-25T12:26:07.055Z,1.20
2022-12-25T12:28:45.907Z,1.70
2022-12-25T12:31:14.926Z,1.50
2022-12-25T12:33:53.604Z,2.00
2022-12-25T12:36:34.497Z,1.10
2022-12-25T12:39:05.066Z,1.30
2022-12-25T12:41:46.374Z,1.60
2022-12-25T12:44:15.960Z,1.17
2022-12-25T12:46:54.013Z,1.57
2022-12-25T12:49:29.180Z,1.53
2022-12-25T12:52:26.425Z,1.30
2022-12-25T12:55:01.640Z,1.40
2022-12-25T12:57:35.708Z,1.40
2022-12-25T13:00:10.251Z,1.67
2022-12-25T13:03:27.664Z,1.57
2022-12-25T13:06:05.745Z,1.37
2022-12-25T13:08:52.165Z,1.17
2022-12-25T13:11:23.898Z,1.20
2022-12-25T13:13:54.681Z,1.20
2022-12-25T13:16:29.210Z,1.07
2022-12-25T13:18:58.537Z,1.00
2022-12-25T13:21:30.218Z,1.50
2022-12-25T13:24:01.578Z,0.83
2022-12-25T13:26:31.313Z,1.40
2022-12-25T13:28:59.718Z,1.27
2022-12-25T13:31:31.652Z,0.97
2022-12-25T13:34:04.589Z,0.90
2022-12-25T13:36:41.649Z,1.07
2022-12-25T13:39:15.609Z,0.90
2022-12-25T13:42:05.119Z,0.90
2022-12-25T13:44:44.323Z,1.70
2022-12-25T13:47:23.484Z,2.00
2022-12-25T13:49:52.965Z,1.30
2022-12-25T13:52:28.584Z,1.20
2022-12-25T13:55:00.288Z,1.30
2022-12-25T13:57:36.513Z,0.90
2022-12-25T14:00:08.106Z,1.37
2022-12-25T14:02:38.990Z,1.17
2022-12-25T14:05:25.818Z,1.00
2022-12-25T14:07:56.940Z,1.10
2022-12-25T14:10:28.603Z,0.97
2022-12-25T14:13:01.328Z,1.60
2022-12-25T14:15:33.667Z,1.23
2022-12-25T14:18:02.475Z,0.97
2022-12-25T14:20:36.434Z,1.43
2022-12-25T14:23:13.067Z,1.00
2022-12-25T14:25:44.727Z,1.07
2022-12-25T14:28:21.385Z,0.77
2022-12-25T14:30:50.018Z,1.80
2022-12-25T14:33:21.241Z,1.63
2022-12-25T14:35:50.231Z,1.30
2022-12-25T14:38:25.606Z,1.00
2022-12-25T14:41:00.943Z,1.00
2022-12-25T14:43:31.450Z,1.00
2022-12-25T14:46:02.695Z,1.07
2022-12-25T14:48:42.078Z,1.30
2022-12-25T14:51:18.090Z,1.50
2022-12-25T14:53:52.324Z,1.60
2022-12-25T14:56:23.697Z,1.90
2022-12-25T14:58:54.926Z,2.60
2022-12-25T15:01:29.346Z,1.97
2022-12-25T15:04:07.470Z,1.77
2022-12-25T15:06:35.913Z,1.80
2022-12-25T15:09:14.142Z,1.80
2022-12-25T15:11:42.464Z,2.23
2022-12-25T15:14:20.063Z,2.90
2022-12-25T15:16:53.716Z,2.33
2022-12-25T15:19:27.293Z,2.47
2022-12-25T15:21:58.185Z,2.37
2022-12-25T15:24:28.034Z,2.50
2022-12-25T15:26:56.439Z,3.00
2022-12-25T15:29:52.230Z,2.40
2022-12-25T15:32:19.425Z,3.00
2022-12-25T15:34:49.845Z,2.30
2022-12-25T15:37:19.095Z,2.80
2022-12-25T15:39:48.785Z,2.73
2022-12-25T15:42:23.796Z,4.60
2022-12-25T15:44:52.493Z,5.47
2022-12-25T15:47:22.857Z,3.93
2022-12-25T15:49:51.297Z,3.50
2022-12-25T15:52:19.833Z,2.90
2022-12-25T15:54:49.323Z,3.03
2022-12-25T15:57:20.644Z,3.30
2022-12-25T15:59:48.893Z,4.10
2022-12-25T16:02:20.574Z,3.27
2022-12-25T16:04:50.921Z,2.30
2022-12-25T16:07:24.968Z,3.77
2022-12-25T16:09:54.537Z,2.60
2022-12-25T16:12:22.868Z,3.70
2022-12-25T16:14:51.034Z,2.90
2022-12-25T16:17:19.247Z,5.93
2022-12-25T16:19:47.397Z,3.90
2022-12-25T16:22:21.389Z,3.70
2022-12-25T16:24:50.447Z,5.80
2022-12-25T16:27:20.383Z,5.10
2022-12-25T16:29:48.748Z,4.70
2022-12-25T16:32:17.320Z,5.17
2022-12-25T16:34:45.582Z,4.30
2022-12-25T16:37:13.705Z,4.47
2022-12-25T16:39:41.948Z,3.73
2022-12-25T16:42:10.590Z,3.40
2022-12-25T16:44:40.651Z,3.90
2022-12-25T16:47:08.933Z,4.23
2022-12-25T16:49:37.069Z,4.33
2022-12-25T16:52:05.710Z,4.37
2022-12-25T16:54:33.943Z,19.50
2022-12-25T16:57:02.141Z,18.20
2022-12-25T16:59:30.332Z,9.70
2022-12-25T17:02:00.156Z,6.20
2022-12-25T17:04:29.054Z,8.00
2022-12-25T17:06:57.283Z,7.77
2022-12-25T17:09:25.505Z,8.13
2022-12-25T17:11:53.673Z,7.57
2022-12-25T17:14:21.872Z,9.63
2022-12-25T17:16:50.061Z,8.90
2022-12-25T17:19:23.672Z,6.40
2022-12-25T17:21:52.595Z,5.50
2022-12-25T17:24:20.749Z,9.53
2022-12-25T17:26:49.676Z,6.90
2022-12-25T17:29:21.919Z,6.13
2022-12-25T17:31:51.386Z,6.40
2022-12-25T17:34:21.176Z,4.93
2022-12-25T17:36:49.585Z,3.60
2022-12-25T17:39:17.799Z,2.60
2022-12-25T17:41:46.175Z,2.20
2022-12-25T17:44:14.310Z,1.83
2022-12-25T17:46:42.587Z,2.13
2022-12-25T17:49:16.697Z,2.67
2022-12-25T17:51:47.239Z,2.80
2022-12-25T17:54:15.882Z,2.70
2022-12-25T17:56:44.149Z,2.50
2022-12-25T17:59:18.419Z,2.50
2022-12-25T18:01:49.035Z,2.60
2022-12-25T18:04:17.601Z,2.10
2022-12-25T18:06:47.345Z,1.90
2022-12-25T18:09:15.510Z,2.47
2022-12-25T18:11:46.061Z,1.80
2022-12-25T18:14:16.890Z,2.13
2022-12-25T18:16:46.990Z,1.70
2022-12-25T18:19:17.734Z,1.90
2022-12-25T18:21:47.290Z,2.10
2022-12-25T18:24:15.450Z,2.67
2022-12-25T18:26:43.879Z,2.03
2022-12-25T18:29:12.000Z,1.93
2022-12-25T18:31:40.274Z,2.57
2022-12-25T18:34:08.447Z,2.07
2022-12-25T18:36:36.990Z,2.00
2022-12-25T18:39:06.654Z,2.40
2022-12-25T18:41:54.767Z,2.03
2022-12-25T18:44:23.075Z,1.80
2022-12-25T18:46:51.272Z,3.40
2022-12-25T18:49:19.452Z,2.27
2022-12-25T18:51:48.017Z,1.43
2022-12-25T18:54:17.653Z,1.50
2022-12-25T18:56:49.501Z,1.80
2022-12-25T18:59:21.361Z,1.90
2022-12-25T19:01:49.666Z,1.87
2022-12-25T19:04:18.403Z,1.93
2022-12-25T19:06:46.592Z,1.60
2022-12-25T19:09:14.746Z,1.47
2022-12-25T19:11:46.770Z,1.77
2022-12-25T19:14:15.909Z,1.50
2022-12-25T19:16:44.234Z,1.87
2022-12-25T19:19:13.200Z,2.00
2022-12-25T19:21:44.636Z,1.53
2022-12-25T19:24:12.894Z,2.10
2022-12-25T19:26:41.168Z,2.23
2022-12-25T19:29:10.797Z,1.87
2022-12-25T19:31:40.592Z,2.00
2022-12-25T19:34:09.983Z,2.10
2022-12-25T19:36:39.253Z,1.70
2022-12-25T19:39:08.185Z,2.23
2022-12-25T19:41:36.587Z,1.97
2022-12-25T19:44:05.491Z,2.10
2022-12-25T19:46:42.350Z,2.10
2022-12-25T19:49:14.031Z,2.00
2022-12-25T19:51:45.103Z,1.80
2022-12-25T19:54:15.776Z,2.20
2022-12-25T19:56:44.125Z,2.20
2022-12-25T19:59:14.553Z,3.03
2022-12-25T20:01:44.544Z,2.23
2022-12-25T20:04:12.781Z,2.40
2022-12-25T20:06:42.614Z,2.70
2022-12-25T20:09:14.677Z,2.97
2022-12-25T20:11:44.235Z,2.67
2022-12-25T20:14:16.101Z,2.90
2022-12-25T20:16:45.789Z,2.47
2022-12-25T20:19:14.712Z,3.30
2022-12-25T20:21:43.430Z,3.10
2022-12-25T20:24:11.862Z,2.97
2022-12-25T20:26:40.762Z,3.33
2022-12-25T20:29:09.037Z,3.40
2022-12-25T20:31:37.849Z,3.80
2022-12-25T20:34:10.360Z,2.93
2022-12-25T20:36:39.108Z,5.07
2022-12-25T20:39:09.455Z,3.80
2022-12-25T20:41:38.850Z,3.10
2022-12-25T20:44:08.537Z,2.17
2022-12-25T20:46:37.236Z,1.93
2022-12-25T20:49:07.131Z,1.90
2022-12-25T20:51:36.021Z,2.00
2022-12-25T20:54:15.235Z,2.00
2022-12-25T20:56:43.522Z,1.70
2022-12-25T20:59:12.278Z,1.90
2022-12-25T21:01:42.395Z,2.53
2022-12-25T21:04:16.253Z,2.53
2022-12-25T21:06:44.913Z,2.97
2022-12-25T21:09:13.265Z,4.10
2022-12-25T21:11:41.648Z,3.07
2022-12-25T21:14:10.114Z,2.57
2022-12-25T21:16:38.542Z,2.40
2022-12-25T21:19:07.554Z,2.20
2022-12-25T21:21:42.494Z,2.40
2022-12-25T21:24:11.160Z,2.80
2022-12-25T21:26:44.416Z,2.00
2022-12-25T21:29:17.779Z,2.33
2022-12-25T21:32:03.807Z,2.13
2022-12-25T21:34:32.253Z,2.80
2022-12-25T21:37:01.745Z,2.10
2022-12-25T21:39:29.990Z,2.37
2022-12-25T21:41:58.324Z,1.77
2022-12-25T21:44:26.739Z,2.80
2022-12-25T21:46:55.009Z,2.40
2022-12-25T21:49:37.407Z,2.73
2022-12-25T21:52:10.093Z,2.10
2022-12-25T21:54:38.412Z,2.77
2022-12-25T21:57:09.979Z,2.07
2022-12-25T21:59:38.441Z,1.97
2022-12-25T22:02:11.202Z,5.30
2022-12-25T22:04:40.318Z,3.30
2022-12-25T22:07:18.823Z,2.20
2022-12-25T22:09:48.457Z,2.13
2022-12-25T22:12:36.058Z,1.97
2022-12-25T22:15:07.052Z,2.30
2022-12-25T22:17:55.258Z,1.77
2022-12-25T22:20:26.308Z,2.00
2022-12-25T22:22:56.081Z,2.40
2022-12-25T22:25:25.976Z,1.60
2022-12-25T22:27:54.734Z,2.23
2022-12-25T22:30:27.487Z,2.00
2022-12-25T22:32:56.451Z,2.60
2022-12-25T22:35:25.157Z,1.87
2022-12-25T22:37:54.923Z,1.77
2022-12-25T22:40:25.509Z,2.10
2022-12-25T22:42:55.742Z,2.10
2022-12-25T22:45:23.922Z,1.60
2022-12-25T22:47:52.366Z,2.37
2022-12-25T22:50:26.397Z,1.90
2022-12-25T22:52:56.089Z,1.87
2022-12-25T22:55:24.377Z,1.70
2022-12-25T22:57:52.677Z,2.00
2022-12-25T23:00:21.178Z,1.40
2022-12-25T23:02:49.592Z,1.90
2022-12-25T23:05:18.429Z,1.77
2022-12-25T23:07:46.660Z,2.00
2022-12-25T23:10:16.114Z,1.57
2022-12-25T23:13:01.995Z,1.87
2022-12-25T23:15:30.230Z,2.30
2022-12-25T23:18:16.055Z,2.67
2022-12-25T23:21:02.026Z,2.30
2022-12-25T23:24:02.449Z,1.80
2022-12-25T23:26:31.963Z,2.10
2022-12-25T23:29:17.445Z,2.23
2022-12-25T23:31:53.421Z,1.97
2022-12-25T23:34:22.377Z,2.10
2022-12-25T23:36:50.637Z,1.30
2022-12-25T23:39:18.777Z,2.43
2022-12-25T23:41:48.327Z,2.60
2022-12-25T23:44:16.474Z,1.90
2022-12-25T23:46:52.918Z,2.10
2022-12-25T23:49:22.240Z,2.30
2022-12-25T23:51:50.528Z,2.40
2022-12-25T23:54:22.212Z,3.07
2022-12-25T23:56:52.250Z,2.80
2022-12-25T23:59:21.115Z,2.20
